METAR Data
IDs: Format: Raw Decoded Include TAF

Data at: 1629 UTC 03 Dec 2021

METAR for:KCAG (Craig-Moffat Arpt, CO, US)
Text:KCAG 031553Z AUTO 00000KT 10SM CLR M03/M04 A3026 RMK AO2 SLP284 T10281044
Temperature: -2.8°C ( 27°F)
Dewpoint: -4.4°C ( 24°F) [RH = 89%]
Pressure (altimeter):30.26 inches Hg (1024.8 mb) [Sea level pressure: 1028.4 mb]
Winds:calm
Visibility:10 or more sm (16+ km)
Ceiling:at least 12,000 feet AGL
Clouds:sky clear below 12,000 feet AGL
QC Flag:automated observation with no human augmentation